Time;durP1;ratioP1;P1;durP2;ratioP2;P2;SDS_P1;SDS_P2;PMS_P1;PMS_P2;Temp;Humidity;BMP_temperature;BMP_pressure;BME280_temperature;BME280_humidity;BME280_pressure;Samples;Min_cycle;Max_cycle;Signal;HPM_P1;HPM_P2
2022/05/25 00:00:03;;;;;;;;;;;;;;;;;;1037163;28;4130;-58
2022/05/25 00:00:33;;;;;;;;;;;;;;;;;;1036307;28;3232;-57
2022/05/25 00:01:08;;;;;;;;;;;;;;;;;;1036500;28;3850;-57
2022/05/25 00:01:39;;;;;;;;;;;;;;;;;;1037971;28;3313;-55
2022/05/25 00:02:09;;;;;;;;;;;;;;;;;;1036285;28;4111;-56
2022/05/25 00:02:39;;;;;;;;;;;;;;;;;;1040929;28;3079;-56
2022/05/25 00:03:10;;;;;;;;;;;;;;;;;;1040162;28;3970;-57
2022/05/25 00:03:40;;;;;;;;;;;;;;;;;;1041882;28;3481;-55
2022/05/25 00:04:10;;;;;;;;;;;;;;;;;;1039246;28;3956;-56
2022/05/25 00:04:40;;;;;;;;;;;;;;;;;;1037522;28;3333;-55
2022/05/25 00:05:12;;;;;;;;;;;;;;;;;;1037774;28;4037;-53
2022/05/25 00:05:42;;;;;;;;;;;;;;;;;;1036296;28;3807;-58
2022/05/25 00:06:12;;;;;;;;;;;;;;;;;;1036265;28;3994;-58
2022/05/25 00:06:43;;;;;;;;;;;;;;;;;;1038141;28;1568;-52
2022/05/25 00:07:14;;;;;;;;;;;;;;;;;;1037513;28;3948;-57
2022/05/25 00:07:44;;;;;;;;;;;;;;;;;;1037833;28;4060;-55
2022/05/25 00:08:14;;;;;;;;;;;;;;;;;;1035970;28;3385;-54
2022/05/25 00:08:45;;;;;;;;;;;;;;;;;;1034722;28;4115;-55
2022/05/25 00:09:15;;;;;;;;;;;;;;;;;;1037189;28;2049;-57
2022/05/25 00:09:46;;;;;;;;;;;;;;;;;;1037524;28;3919;-56
2022/05/25 00:10:16;;;;;;;;;;;;;;;;;;1035909;28;3534;-59
2022/05/25 00:10:46;;;;;;;;;;;;;;;;;;1036415;28;4293;-53
2022/05/25 00:11:16;;;;;;;;;;;;;;;;;;1034695;28;6011;-56
2022/05/25 00:11:47;;;;;;;;;;;;;;;;;;1036552;28;4070;-56
2022/05/25 00:12:24;;;;;;;;;;;;;;;;;;1037112;28;3864;-56
2022/05/25 00:12:54;;;;;;;;;;;;;;;;;;1037081;28;3950;-57
2022/05/25 00:13:24;;;;;;;;;;;;;;;;;;1036891;28;3729;-54
2022/05/25 00:13:54;;;;;;;;;;;;;;;;;;1036940;28;4095;-57
2022/05/25 00:14:25;;;;;;;;;;;;;;;;;;1037493;28;3566;-57
2022/05/25 00:14:55;;;;;;;;;;;;;;;;;;1037658;28;3960;-57
2022/05/25 00:15:25;;;;;;;;;;;;;;;;;;1036400;28;3706;-58
2022/05/25 00:15:55;;;;;;;;;;;;;;;;;;1035235;28;3880;-57
2022/05/25 00:16:26;;;;;;;;;;;;;;;;;;1037646;28;3287;-53
2022/05/25 00:16:56;;;;;;;;;;;;;;;;;;1036489;28;4332;-53
2022/05/25 00:17:26;;;;;;;;;;;;;;;;;;1036264;28;3950;-56
2022/05/25 00:17:56;;;;;;;;;;;;;;;;;;1037087;28;3955;-54
2022/05/25 00:18:34;;;;;;;;;;;;;;;;;;1037856;28;1695;-57
2022/05/25 00:20:00;;;;;;;;;;;;;;;;;;1036257;28;4299;-56
2022/05/25 00:20:30;;;;;;;;;;;;;;;;;;1036698;28;2730;-56
2022/05/25 00:21:00;;;;;;;;;;;;;;;;;;1036546;28;3902;-58
2022/05/25 00:21:31;;;;;;;;;;;;;;;;;;1036895;28;3422;-56
2022/05/25 00:22:07;;;;;;;;;;;;;;;;;;1033643;28;3915;-55
2022/05/25 00:22:43;;;;;;;;;;;;;;;;;;1037431;28;3209;-57
2022/05/25 00:23:13;;;;;;;;;;;;;;;;;;1036562;28;3811;-55
2022/05/25 00:23:43;;;;;;;;;;;;;;;;;;1036733;28;3196;-53
2022/05/25 00:24:14;;;;;;;;;;;;;;;;;;1036058;28;3976;-55
2022/05/25 00:24:44;;;;;;;;;;;;;;;;;;1037171;28;3896;-54
2022/05/25 00:25:17;;;;;;;;;;;;;;;;;;1036784;28;3425;-56
2022/05/25 00:25:47;;;;;;;;;;;;;;;;;;1035886;28;4159;-56
2022/05/25 00:26:18;;;;;;;;;;;;;;;;;;1037063;28;3217;-58
2022/05/25 00:26:48;;;;;;;;;;;;;;;;;;1036537;28;3958;-58
2022/05/25 00:27:18;;;;;;;;;;;;;;;;;;1036133;28;3716;-56
2022/05/25 00:27:48;;;;;;;;;;;;;;;;;;1036386;28;3951;-56
2022/05/25 00:28:19;;;;;;;;;;;;;;;;;;1037803;28;2618;-57
2022/05/25 00:28:50;;;;;;;;;;;;;;;;;;1036170;28;4047;-57
2022/05/25 00:29:20;;;;;;;;;;;;;;;;;;1037381;28;3390;-55
2022/05/25 00:29:50;;;;;;;;;;;;;;;;;;1035456;28;4123;-54
2022/05/25 00:30:21;;;;;;;;;;;;;;;;;;1035479;28;3599;-57
2022/05/25 00:30:51;;;;;;;;;;;;;;;;;;1036708;28;4050;-57
2022/05/25 00:31:22;;;;;;;;;;;;;;;;;;1037850;28;2469;-54
2022/05/25 00:31:59;;;;;;;;;;;;;;;;;;1037505;28;3941;-54
2022/05/25 00:32:29;;;;;;;;;;;;;;;;;;1036042;28;3592;-54
2022/05/25 00:33:01;;;;;;;;;;;;;;;;;;1036835;28;3935;-57
2022/05/25 00:33:31;;;;;;;;;;;;;;;;;;1037679;28;3241;-57
2022/05/25 00:34:02;;;;;;;;;;;;;;;;;;1035393;28;4093;-55
2022/05/25 00:34:32;;;;;;;;;;;;;;;;;;1036026;28;3544;-58
2022/05/25 00:35:03;;;;;;;;;;;;;;;;;;1036879;28;3885;-55
2022/05/25 00:35:35;;;;;;;;;;;;;;;;;;1038183;28;1728;-56
2022/05/25 00:36:05;;;;;;;;;;;;;;;;;;1034812;28;3894;-54
2022/05/25 00:36:36;;;;;;;;;;;;;;;;;;1037643;28;1692;-54
2022/05/25 00:37:06;;;;;;;;;;;;;;;;;;1037216;28;4343;-53
2022/05/25 00:37:37;;;;;;;;;;;;;;;;;;1037009;28;1848;-56
2022/05/25 00:38:08;;;;;;;;;;;;;;;;;;1036722;28;4099;-55
2022/05/25 00:38:38;;;;;;;;;;;;;;;;;;1037203;28;2283;-56
2022/05/25 00:39:08;;;;;;;;;;;;;;;;;;1035755;28;4073;-56
2022/05/25 00:39:40;;;;;;;;;;;;;;;;;;1037472;28;2075;-54
2022/05/25 00:40:12;;;;;;;;;;;;;;;;;;1034948;28;3901;-55
2022/05/25 00:40:44;;;;;;;;;;;;;;;;;;1036738;28;3774;-55
2022/05/25 00:41:14;;;;;;;;;;;;;;;;;;1035953;28;3897;-56
2022/05/25 00:41:44;;;;;;;;;;;;;;;;;;1037759;28;4036;-53
2022/05/25 00:42:16;;;;;;;;;;;;;;;;;;1035509;28;3446;-53
2022/05/25 00:42:46;;;;;;;;;;;;;;;;;;1036756;28;3931;-53
2022/05/25 00:43:16;;;;;;;;;;;;;;;;;;1036787;28;2498;-54
2022/05/25 00:43:46;;;;;;;;;;;;;;;;;;1036534;28;3966;-53
2022/05/25 00:44:17;;;;;;;;;;;;;;;;;;1032699;28;3609;-56
2022/05/25 00:44:48;;;;;;;;;;;;;;;;;;1036079;28;3972;-57
2022/05/25 00:45:18;;;;;;;;;;;;;;;;;;1037768;28;3566;-56
2022/05/25 00:45:51;;;;;;;;;;;;;;;;;;1035979;28;4049;-53
2022/05/25 00:46:22;;;;;;;;;;;;;;;;;;1036919;28;3417;-55
2022/05/25 00:46:53;;;;;;;;;;;;;;;;;;1036383;28;3970;-56
2022/05/25 00:47:24;;;;;;;;;;;;;;;;;;1037144;28;1440;-54
2022/05/25 00:47:55;;;;;;;;;;;;;;;;;;1035498;28;4278;-56
2022/05/25 00:48:29;;;;;;;;;;;;;;;;;;1037520;28;1624;-58
2022/05/25 00:49:01;;;;;;;;;;;;;;;;;;1036526;28;4037;-56
2022/05/25 00:49:33;;;;;;;;;;;;;;;;;;1036370;28;3674;-57
2022/05/25 00:50:04;;;;;;;;;;;;;;;;;;1036464;28;4699;-57
2022/05/25 00:51:41;;;;;;;;;;;;;;;;;;1040767;28;4138;-54
2022/05/25 00:52:13;;;;;;;;;;;;;;;;;;1040911;28;3863;-55
2022/05/25 00:52:45;;;;;;;;;;;;;;;;;;1041628;28;4010;-55
2022/05/25 00:53:16;;;;;;;;;;;;;;;;;;1041042;28;3775;-58
2022/05/25 00:53:55;;;;;;;;;;;;;;;;;;1039898;28;3847;-55
2022/05/25 00:54:30;;;;;;;;;;;;;;;;;;1038880;28;3755;-53
2022/05/25 00:55:08;;;;;;;;;;;;;;;;;;1040883;28;3916;-56
2022/05/25 00:55:39;;;;;;;;;;;;;;;;;;1041233;28;1739;-57
2022/05/25 00:56:12;;;;;;;;;;;;;;;;;;1040762;28;4015;-56
2022/05/25 00:56:45;;;;;;;;;;;;;;;;;;1041824;28;3135;-56
2022/05/25 00:57:18;;;;;;;;;;;;;;;;;;1042137;28;3888;-54
2022/05/25 00:57:49;;;;;;;;;;;;;;;;;;1042163;28;3852;-58
2022/05/25 00:58:19;;;;;;;;;;;;;;;;;;1041072;28;3270;-54
2022/05/25 00:58:53;;;;;;;;;;;;;;;;;;1041957;28;4021;-57
2022/05/25 00:59:28;;;;;;;;;;;;;;;;;;1041201;28;2683;-54
2022/05/25 01:00:04;;;;;;;;;;;;;;;;;;1040980;28;3871;-54
2022/05/25 01:00:34;;;;;;;;;;;;;;;;;;1041912;28;3698;-56
2022/05/25 01:01:04;;;;;;;;;;;;;;;;;;1041500;28;4441;-55
2022/05/25 01:01:34;;;;;;;;;;;;;;;;;;1043175;28;2674;-57
2022/05/25 01:02:05;;;;;;;;;;;;;;;;;;1040934;28;4593;-53
2022/05/25 01:02:37;;;;;;;;;;;;;;;;;;1042437;28;3290;-60
2022/05/25 01:03:10;;;;;;;;;;;;;;;;;;1040160;28;4066;-54
2022/05/25 01:03:40;;;;;;;;;;;;;;;;;;1043275;28;3320;-57
2022/05/25 01:04:11;;;;;;;;;;;;;;;;;;1039645;28;4064;-56
2022/05/25 01:04:41;;;;;;;;;;;;;;;;;;1041340;28;3749;-55
2022/05/25 01:05:13;;;;;;;;;;;;;;;;;;1041002;28;3821;-55
2022/05/25 01:06:02;;;;;;;;;;;;;;;;;;1046266;28;1524;-57
2022/05/25 01:06:38;;;;;;;;;;;;;;;;;;1045088;28;4907;-56
2022/05/25 01:07:16;;;;;;;;;;;;;;;;;;1046713;28;4055;-52
2022/05/25 01:07:58;;;;;;;;;;;;;;;;;;1042054;28;4037;-55
2022/05/25 01:08:54;;;;;;;;;;;;;;;;;;1041403;28;3842;-54
2022/05/25 01:09:30;;;;;;;;;;;;;;;;;;1041143;28;3725;-57
2022/05/25 01:10:09;;;;;;;;;;;;;;;;;;1040199;28;3949;-57
2022/05/25 01:10:40;;;;;;;;;;;;;;;;;;1042433;28;3176;-54
2022/05/25 01:11:31;;;;;;;;;;;;;;;;;;1041934;28;3887;-56
2022/05/25 01:12:04;;;;;;;;;;;;;;;;;;1041767;28;3891;-53
2022/05/25 01:12:45;;;;;;;;;;;;;;;;;;1042400;28;1597;-58
2022/05/25 01:13:22;;;;;;;;;;;;;;;;;;1041265;28;3676;-52
2022/05/25 01:14:00;;;;;;;;;;;;;;;;;;1042276;28;3870;-57
2022/05/25 01:15:06;;;;;;;;;;;;;;;;;;1042774;28;2131;-55
2022/05/25 01:15:48;;;;;;;;;;;;;;;;;;1029141;28;3898;-56
2022/05/25 01:16:28;;;;;;;;;;;;;;;;;;1029589;28;3913;-57
2022/05/25 01:17:13;;;;;;;;;;;;;;;;;;1029471;28;3906;-57
2022/05/25 01:17:46;;;;;;;;;;;;;;;;;;1028052;28;4164;-55
2022/05/25 01:18:17;;;;;;;;;;;;;;;;;;1034616;28;3111;-55
2022/05/25 01:18:48;;;;;;;;;;;;;;;;;;1040673;28;3894;-56
2022/05/25 01:19:18;;;;;;;;;;;;;;;;;;1041053;28;3810;-55
2022/05/25 01:19:49;;;;;;;;;;;;;;;;;;1041328;28;4011;-55
2022/05/25 01:20:43;;;;;;;;;;;;;;;;;;1042503;28;1655;-56
2022/05/25 01:21:23;;;;;;;;;;;;;;;;;;1044959;28;3943;-55
2022/05/25 01:22:00;;;;;;;;;;;;;;;;;;1045250;28;3970;-55
2022/05/25 01:22:44;;;;;;;;;;;;;;;;;;1046546;28;1252;-58
2022/05/25 01:23:32;;;;;;;;;;;;;;;;;;1040583;28;3990;-54
2022/05/25 01:24:03;;;;;;;;;;;;;;;;;;1039482;28;4447;-56
2022/05/25 01:24:42;;;;;;;;;;;;;;;;;;1042225;28;3493;-56
2022/05/25 01:25:12;;;;;;;;;;;;;;;;;;1042286;28;4051;-56
2022/05/25 01:25:56;;;;;;;;;;;;;;;;;;1044678;28;4999;-57
2022/05/25 01:26:38;;;;;;;;;;;;;;;;;;1045556;28;3820;-53
2022/05/25 01:27:16;;;;;;;;;;;;;;;;;;1045534;28;4142;-53
2022/05/25 01:27:48;;;;;;;;;;;;;;;;;;1040338;28;3902;-56
2022/05/25 01:28:18;;;;;;;;;;;;;;;;;;1041659;28;2727;-55
2022/05/25 01:29:07;;;;;;;;;;;;;;;;;;1040818;28;4063;-57
2022/05/25 01:29:43;;;;;;;;;;;;;;;;;;1039384;28;5287;-53
2022/05/25 01:30:18;;;;;;;;;;;;;;;;;;1042213;28;4556;-56
2022/05/25 01:30:51;;;;;;;;;;;;;;;;;;1040775;28;3833;-55
2022/05/25 01:31:23;;;;;;;;;;;;;;;;;;1041948;28;3889;-56
2022/05/25 01:31:57;;;;;;;;;;;;;;;;;;1042112;28;3916;-56
2022/05/25 01:32:36;;;;;;;;;;;;;;;;;;1042525;28;2001;-56
2022/05/25 01:33:29;;;;;;;;;;;;;;;;;;1040904;28;4059;-58
2022/05/25 01:34:14;;;;;;;;;;;;;;;;;;1041393;28;4732;-58
2022/05/25 01:34:52;;;;;;;;;;;;;;;;;;1040833;28;4155;-56
2022/05/25 01:35:33;;;;;;;;;;;;;;;;;;1037779;28;1848;-57
2022/05/25 01:36:09;;;;;;;;;;;;;;;;;;1038136;28;4125;-58
2022/05/25 01:36:40;;;;;;;;;;;;;;;;;;1040266;28;3606;-56
2022/05/25 01:37:16;;;;;;;;;;;;;;;;;;1040715;28;3918;-52
2022/05/25 01:37:53;;;;;;;;;;;;;;;;;;1041360;28;4126;-58
2022/05/25 01:38:25;;;;;;;;;;;;;;;;;;1042612;28;1459;-55
2022/05/25 01:39:01;;;;;;;;;;;;;;;;;;1041307;28;4186;-58
2022/05/25 01:39:35;;;;;;;;;;;;;;;;;;1041695;28;3920;-54
2022/05/25 01:40:27;;;;;;;;;;;;;;;;;;1041836;28;4703;-52
2022/05/25 01:41:01;;;;;;;;;;;;;;;;;;1041330;28;4062;-54
2022/05/25 01:41:44;;;;;;;;;;;;;;;;;;1041393;28;2021;-56
2022/05/25 01:42:18;;;;;;;;;;;;;;;;;;1042363;28;3877;-57
2022/05/25 01:43:08;;;;;;;;;;;;;;;;;;1040835;28;4273;-57
2022/05/25 01:43:43;;;;;;;;;;;;;;;;;;1045857;28;1529;-57
2022/05/25 01:44:18;;;;;;;;;;;;;;;;;;1045758;28;3847;-57
2022/05/25 01:44:51;;;;;;;;;;;;;;;;;;1043355;28;3887;-56
2022/05/25 01:45:23;;;;;;;;;;;;;;;;;;1044221;28;4042;-54
2022/05/25 01:45:55;;;;;;;;;;;;;;;;;;1040332;28;4088;-56
2022/05/25 01:46:34;;;;;;;;;;;;;;;;;;1041123;28;3451;-58
2022/05/25 01:47:05;;;;;;;;;;;;;;;;;;1041141;28;4274;-55
2022/05/25 01:47:37;;;;;;;;;;;;;;;;;;1041055;28;3209;-56
2022/05/25 01:48:09;;;;;;;;;;;;;;;;;;1040653;28;3873;-56
2022/05/25 01:48:41;;;;;;;;;;;;;;;;;;1039998;28;3834;-53
2022/05/25 01:49:13;;;;;;;;;;;;;;;;;;1040242;28;4371;-54
2022/05/25 01:49:45;;;;;;;;;;;;;;;;;;1039726;28;4145;-57
2022/05/25 01:50:30;;;;;;;;;;;;;;;;;;1040503;28;4022;-57
2022/05/25 01:51:11;;;;;;;;;;;;;;;;;;1041301;28;3784;-54
2022/05/25 01:51:50;;;;;;;;;;;;;;;;;;1041664;28;2840;-55
2022/05/25 01:52:27;;;;;;;;;;;;;;;;;;1041080;28;4164;-55
2022/05/25 01:52:59;;;;;;;;;;;;;;;;;;1041814;28;3916;-52
2022/05/25 01:53:32;;;;;;;;;;;;;;;;;;1041844;28;2444;-58
2022/05/25 01:54:04;;;;;;;;;;;;;;;;;;1040513;28;4069;-59
2022/05/25 01:54:37;;;;;;;;;;;;;;;;;;1041474;28;4008;-56
2022/05/25 01:55:09;;;;;;;;;;;;;;;;;;1040368;28;3777;-56
2022/05/25 01:55:43;;;;;;;;;;;;;;;;;;1042432;28;3321;-54
2022/05/25 01:56:14;;;;;;;;;;;;;;;;;;1040114;28;3799;-57
2022/05/25 01:56:47;;;;;;;;;;;;;;;;;;1040381;28;5938;-54
2022/05/25 01:57:18;;;;;;;;;;;;;;;;;;1041590;28;3720;-55
2022/05/25 01:57:50;;;;;;;;;;;;;;;;;;1041576;28;4059;-54
2022/05/25 01:58:21;;;;;;;;;;;;;;;;;;1040216;28;3339;-56
2022/05/25 01:58:57;;;;;;;;;;;;;;;;;;1039635;28;3909;-55
2022/05/25 01:59:27;;;;;;;;;;;;;;;;;;1040848;28;3453;-56
2022/05/25 01:59:57;;;;;;;;;;;;;;;;;;1041333;28;3807;-55
2022/05/25 02:00:31;;;;;;;;;;;;;;;;;;1042260;28;3128;-57
2022/05/25 02:01:03;;;;;;;;;;;;;;;;;;1041095;28;3774;-52
2022/05/25 02:01:33;;;;;;;;;;;;;;;;;;1041332;28;3220;-53
2022/05/25 02:04:33;;;;;;;;;;;;;;;;;;1043902;28;2994;-56
2022/05/25 02:05:04;;;;;;;;;;;;;;;;;;1044221;28;4254;-56
2022/05/25 02:05:36;;;;;;;;;;;;;;;;;;1042624;28;3770;-58
2022/05/25 02:06:18;;;;;;;;;;;;;;;;;;1040986;28;3836;-59
2022/05/25 02:06:53;;;;;;;;;;;;;;;;;;1041471;28;3887;-58
2022/05/25 02:07:24;;;;;;;;;;;;;;;;;;1042592;28;1883;-55
2022/05/25 02:08:18;;;;;;;;;;;;;;;;;;1041413;28;4219;-55
2022/05/25 02:09:21;;;;;;;;;;;;;;;;;;1042066;28;3827;-55
2022/05/25 02:09:51;;;;;;;;;;;;;;;;;;1030363;28;4995;-55
2022/05/25 02:10:21;;;;;;;;;;;;;;;;;;1032060;28;1711;-54
2022/05/25 02:10:52;;;;;;;;;;;;;;;;;;1035653;28;4082;-53
2022/05/25 02:11:28;;;;;;;;;;;;;;;;;;1042697;28;1704;-56
2022/05/25 02:12:10;;;;;;;;;;;;;;;;;;1036481;28;3906;-54
2022/05/25 02:12:56;;;;;;;;;;;;;;;;;;1040750;28;2023;-54
2022/05/25 02:13:45;;;;;;;;;;;;;;;;;;1041604;28;4095;-55
2022/05/25 02:14:33;;;;;;;;;;;;;;;;;;1040256;28;3886;-55
2022/05/25 02:15:14;;;;;;;;;;;;;;;;;;1041035;28;3909;-59
2022/05/25 02:15:47;;;;;;;;;;;;;;;;;;1040574;28;4074;-54
2022/05/25 02:16:25;;;;;;;;;;;;;;;;;;1040930;28;3341;-56
2022/05/25 02:17:08;;;;;;;;;;;;;;;;;;1042181;28;4085;-54
2022/05/25 02:17:43;;;;;;;;;;;;;;;;;;1041293;28;3137;-56
2022/05/25 02:18:28;;;;;;;;;;;;;;;;;;1040220;28;4004;-54
2022/05/25 02:19:05;;;;;;;;;;;;;;;;;;1040796;28;4133;-56
2022/05/25 02:19:49;;;;;;;;;;;;;;;;;;1041965;28;1468;-53
2022/05/25 02:20:38;;;;;;;;;;;;;;;;;;1040628;28;3702;-57
2022/05/25 02:21:11;;;;;;;;;;;;;;;;;;1041406;28;4034;-57
2022/05/25 02:21:45;;;;;;;;;;;;;;;;;;1041504;28;3238;-57
2022/05/25 02:22:17;;;;;;;;;;;;;;;;;;1043661;28;5224;-57
2022/05/25 02:22:49;;;;;;;;;;;;;;;;;;1043518;28;4051;-58
2022/05/25 02:23:25;;;;;;;;;;;;;;;;;;1040841;28;3760;-56
2022/05/25 02:24:00;;;;;;;;;;;;;;;;;;1042766;28;4458;-55
2022/05/25 02:25:05;;;;;;;;;;;;;;;;;;1041934;28;3544;-57
2022/05/25 02:25:45;;;;;;;;;;;;;;;;;;1042100;28;3739;-54
2022/05/25 02:26:28;;;;;;;;;;;;;;;;;;1041515;28;4232;-53
2022/05/25 02:26:58;;;;;;;;;;;;;;;;;;1041422;28;4051;-54
2022/05/25 02:27:47;;;;;;;;;;;;;;;;;;1042219;28;2700;-54
2022/05/25 02:28:20;;;;;;;;;;;;;;;;;;1040796;28;3949;-54
2022/05/25 02:28:57;;;;;;;;;;;;;;;;;;1040949;28;3919;-56
2022/05/25 02:29:34;;;;;;;;;;;;;;;;;;1042288;28;2987;-53
2022/05/25 02:30:08;;;;;;;;;;;;;;;;;;1040601;28;3879;-57
2022/05/25 02:30:40;;;;;;;;;;;;;;;;;;1041895;28;3397;-57
2022/05/25 02:31:13;;;;;;;;;;;;;;;;;;1042457;28;3842;-55
2022/05/25 02:31:46;;;;;;;;;;;;;;;;;;1040837;28;4053;-55
2022/05/25 02:32:25;;;;;;;;;;;;;;;;;;1041428;28;3451;-55
2022/05/25 02:32:56;;;;;;;;;;;;;;;;;;1041885;28;5316;-55
2022/05/25 02:33:32;;;;;;;;;;;;;;;;;;1041021;28;3324;-56
2022/05/25 02:34:04;;;;;;;;;;;;;;;;;;1039529;28;3937;-57
2022/05/25 02:34:35;;;;;;;;;;;;;;;;;;1042086;28;1673;-53
2022/05/25 02:35:07;;;;;;;;;;;;;;;;;;1042059;28;3953;-54
2022/05/25 02:35:39;;;;;;;;;;;;;;;;;;1041219;28;3000;-55
2022/05/25 02:36:10;;;;;;;;;;;;;;;;;;1041035;28;4080;-54
2022/05/25 02:36:41;;;;;;;;;;;;;;;;;;1041812;28;1736;-55
2022/05/25 02:37:12;;;;;;;;;;;;;;;;;;1041889;28;3855;-56
2022/05/25 02:37:43;;;;;;;;;;;;;;;;;;1042034;28;1420;-56
2022/05/25 02:38:14;;;;;;;;;;;;;;;;;;1040969;28;3983;-57
2022/05/25 02:38:44;;;;;;;;;;;;;;;;;;1041143;28;3898;-54
2022/05/25 02:39:15;;;;;;;;;;;;;;;;;;1042308;28;1687;-55
2022/05/25 02:39:45;;;;;;;;;;;;;;;;;;1041116;28;3866;-54
2022/05/25 02:40:16;;;;;;;;;;;;;;;;;;1040289;28;3329;-57
2022/05/25 02:40:46;;;;;;;;;;;;;;;;;;1041280;28;4219;-58
2022/05/25 02:41:30;;;;;;;;;;;;;;;;;;1041686;28;1640;-55
2022/05/25 02:42:01;;;;;;;;;;;;;;;;;;1040635;28;3890;-52
2022/05/25 02:42:32;;;;;;;;;;;;;;;;;;1041820;28;1602;-56
2022/05/25 02:43:03;;;;;;;;;;;;;;;;;;1040217;28;4433;-56
2022/05/25 02:43:36;;;;;;;;;;;;;;;;;;1042164;28;3827;-59
2022/05/25 02:44:07;;;;;;;;;;;;;;;;;;1040992;28;4020;-53
2022/05/25 02:44:38;;;;;;;;;;;;;;;;;;1041722;28;3637;-53
2022/05/25 02:45:09;;;;;;;;;;;;;;;;;;1040731;28;4017;-54
2022/05/25 02:45:39;;;;;;;;;;;;;;;;;;1042517;28;1746;-54
2022/05/25 02:46:10;;;;;;;;;;;;;;;;;;1040539;28;3833;-56
2022/05/25 02:46:40;;;;;;;;;;;;;;;;;;1041772;28;3936;-57
2022/05/25 02:47:11;;;;;;;;;;;;;;;;;;1040354;28;4134;-53
2022/05/25 02:47:42;;;;;;;;;;;;;;;;;;1042396;28;2713;-58
2022/05/25 02:48:12;;;;;;;;;;;;;;;;;;1039011;28;3985;-56
2022/05/25 02:48:42;;;;;;;;;;;;;;;;;;1041371;28;2805;-53
2022/05/25 02:49:13;;;;;;;;;;;;;;;;;;1038412;28;4090;-55
2022/05/25 02:49:43;;;;;;;;;;;;;;;;;;1043096;28;3750;-52
2022/05/25 02:50:13;;;;;;;;;;;;;;;;;;1038742;28;3985;-54
2022/05/25 02:50:56;;;;;;;;;;;;;;;;;;1044912;28;2992;-55
2022/05/25 02:51:34;;;;;;;;;;;;;;;;;;1043739;28;3826;-56
2022/05/25 02:52:05;;;;;;;;;;;;;;;;;;1044854;28;4046;-56
2022/05/25 02:52:35;;;;;;;;;;;;;;;;;;1041330;28;3309;-55
2022/05/25 02:53:06;;;;;;;;;;;;;;;;;;1040949;28;3908;-56
2022/05/25 02:53:36;;;;;;;;;;;;;;;;;;1042064;28;2765;-58
2022/05/25 02:54:07;;;;;;;;;;;;;;;;;;1038965;28;4230;-56
2022/05/25 02:54:38;;;;;;;;;;;;;;;;;;1040943;28;4156;-56
2022/05/25 02:55:09;;;;;;;;;;;;;;;;;;1041853;28;4079;-54
2022/05/25 02:55:39;;;;;;;;;;;;;;;;;;1040970;28;4692;-57
2022/05/25 02:56:09;;;;;;;;;;;;;;;;;;1040222;28;3846;-56
2022/05/25 02:56:39;;;;;;;;;;;;;;;;;;1042534;28;3479;-55
2022/05/25 02:57:10;;;;;;;;;;;;;;;;;;1039816;28;3774;-57
2022/05/25 02:57:40;;;;;;;;;;;;;;;;;;1042881;28;3521;-57
2022/05/25 02:58:10;;;;;;;;;;;;;;;;;;1040516;28;3918;-57
2022/05/25 02:58:41;;;;;;;;;;;;;;;;;;1039756;28;2982;-56
2022/05/25 02:59:11;;;;;;;;;;;;;;;;;;1039893;28;3922;-54
2022/05/25 02:59:41;;;;;;;;;;;;;;;;;;1042267;28;3419;-56
2022/05/25 03:00:12;;;;;;;;;;;;;;;;;;1040551;28;3855;-55
2022/05/25 03:00:43;;;;;;;;;;;;;;;;;;1041786;28;2461;-55
2022/05/25 03:01:13;;;;;;;;;;;;;;;;;;1039190;28;3939;-54
2022/05/25 03:01:44;;;;;;;;;;;;;;;;;;1041457;28;3885;-57
2022/05/25 03:02:14;;;;;;;;;;;;;;;;;;1041316;28;3300;-55
2022/05/25 03:02:44;;;;;;;;;;;;;;;;;;1041574;28;4049;-54
2022/05/25 03:03:14;;;;;;;;;;;;;;;;;;1040197;28;3246;-55
2022/05/25 03:03:45;;;;;;;;;;;;;;;;;;1041382;28;4051;-56
2022/05/25 03:04:15;;;;;;;;;;;;;;;;;;1039729;28;3543;-59
2022/05/25 03:04:45;;;;;;;;;;;;;;;;;;1040992;28;3900;-57
2022/05/25 03:05:16;;;;;;;;;;;;;;;;;;1041028;28;3054;-55
2022/05/25 03:05:46;;;;;;;;;;;;;;;;;;1041049;28;4040;-56
2022/05/25 03:06:17;;;;;;;;;;;;;;;;;;1041835;28;3552;-57
2022/05/25 03:06:48;;;;;;;;;;;;;;;;;;1044461;28;3932;-56
2022/05/25 03:07:18;;;;;;;;;;;;;;;;;;1043846;28;3738;-57
2022/05/25 03:07:48;;;;;;;;;;;;;;;;;;1041707;28;4046;-53
2022/05/25 03:08:19;;;;;;;;;;;;;;;;;;1040037;28;3505;-53
2022/05/25 03:08:49;;;;;;;;;;;;;;;;;;1040113;28;3925;-58
2022/05/25 03:09:19;;;;;;;;;;;;;;;;;;1042022;28;1717;-58
2022/05/25 03:09:50;;;;;;;;;;;;;;;;;;1041614;28;3890;-57
2022/05/25 03:10:20;;;;;;;;;;;;;;;;;;1040956;28;3551;-55
2022/05/25 03:10:50;;;;;;;;;;;;;;;;;;1040279;28;4064;-57
2022/05/25 03:11:21;;;;;;;;;;;;;;;;;;1040977;28;3430;-56
2022/05/25 03:11:51;;;;;;;;;;;;;;;;;;1041201;28;3879;-55
2022/05/25 03:12:21;;;;;;;;;;;;;;;;;;1041776;28;2946;-53
2022/05/25 03:12:51;;;;;;;;;;;;;;;;;;1041374;28;4268;-54
2022/05/25 03:13:22;;;;;;;;;;;;;;;;;;1040939;28;1737;-57
2022/05/25 03:13:52;;;;;;;;;;;;;;;;;;1041341;28;3940;-55
2022/05/25 03:14:22;;;;;;;;;;;;;;;;;;1042079;28;3209;-54
2022/05/25 03:14:52;;;;;;;;;;;;;;;;;;1041084;28;3788;-55
2022/05/25 03:15:23;;;;;;;;;;;;;;;;;;1042560;28;1463;-55
2022/05/25 03:15:56;;;;;;;;;;;;;;;;;;1041059;28;4048;-54
2022/05/25 03:16:26;;;;;;;;;;;;;;;;;;1041173;28;3741;-55
2022/05/25 03:16:58;;;;;;;;;;;;;;;;;;1040742;28;3908;-56
2022/05/25 03:17:28;;;;;;;;;;;;;;;;;;1041447;28;3423;-57
2022/05/25 03:17:59;;;;;;;;;;;;;;;;;;1039824;28;3832;-56
2022/05/25 03:18:29;;;;;;;;;;;;;;;;;;1041542;28;3268;-57
2022/05/25 03:18:59;;;;;;;;;;;;;;;;;;1040636;28;3897;-55
2022/05/25 03:19:29;;;;;;;;;;;;;;;;;;1039531;28;3355;-54
2022/05/25 03:20:00;;;;;;;;;;;;;;;;;;1039517;28;5115;-56
2022/05/25 03:20:30;;;;;;;;;;;;;;;;;;1041023;28;3646;-57
2022/05/25 03:21:00;;;;;;;;;;;;;;;;;;1041221;28;4462;-56
2022/05/25 03:21:30;;;;;;;;;;;;;;;;;;1041427;28;1307;-54
2022/05/25 03:22:01;;;;;;;;;;;;;;;;;;1040603;28;4083;-55
2022/05/25 03:22:34;;;;;;;;;;;;;;;;;;1042401;28;3313;-53
2022/05/25 03:23:04;;;;;;;;;;;;;;;;;;1040151;28;4059;-56
2022/05/25 03:23:35;;;;;;;;;;;;;;;;;;1042782;28;4240;-57
2022/05/25 03:24:13;;;;;;;;;;;;;;;;;;1040401;28;3982;-57
2022/05/25 03:24:44;;;;;;;;;;;;;;;;;;1042098;28;3996;-54
2022/05/25 03:25:14;;;;;;;;;;;;;;;;;;1039036;28;3845;-55
2022/05/25 03:25:45;;;;;;;;;;;;;;;;;;1041143;28;3896;-56
2022/05/25 03:26:16;;;;;;;;;;;;;;;;;;1041244;28;3199;-56
2022/05/25 03:26:46;;;;;;;;;;;;;;;;;;1041075;28;3954;-55
2022/05/25 03:27:16;;;;;;;;;;;;;;;;;;1040231;28;3208;-57
2022/05/25 03:27:47;;;;;;;;;;;;;;;;;;1040542;28;3892;-55
2022/05/25 03:28:17;;;;;;;;;;;;;;;;;;1039037;28;3465;-56
2022/05/25 03:28:47;;;;;;;;;;;;;;;;;;1040057;28;4091;-53
2022/05/25 03:29:19;;;;;;;;;;;;;;;;;;1039762;28;3748;-56
2022/05/25 03:29:50;;;;;;;;;;;;;;;;;;1043874;28;4236;-57
2022/05/25 03:30:20;;;;;;;;;;;;;;;;;;1044328;28;3103;-57
2022/05/25 03:30:50;;;;;;;;;;;;;;;;;;1044990;28;4072;-58
2022/05/25 03:31:20;;;;;;;;;;;;;;;;;;1044593;28;3127;-56
2022/05/25 03:31:51;;;;;;;;;;;;;;;;;;1040032;28;4094;-54
2022/05/25 03:32:21;;;;;;;;;;;;;;;;;;1042313;28;2697;-56
2022/05/25 03:32:51;;;;;;;;;;;;;;;;;;1040973;28;3892;-56
2022/05/25 03:33:22;;;;;;;;;;;;;;;;;;1041189;28;2738;-54
2022/05/25 03:33:52;;;;;;;;;;;;;;;;;;1041484;28;3894;-56
2022/05/25 03:34:23;;;;;;;;;;;;;;;;;;1040682;28;3213;-57
2022/05/25 03:34:53;;;;;;;;;;;;;;;;;;1039590;28;4085;-56
2022/05/25 03:35:23;;;;;;;;;;;;;;;;;;1040146;28;3407;-56
2022/05/25 03:35:53;;;;;;;;;;;;;;;;;;1036780;28;4071;-57
2022/05/25 03:36:24;;;;;;;;;;;;;;;;;;1041671;28;3295;-57
2022/05/25 03:36:57;;;;;;;;;;;;;;;;;;1040595;28;3918;-57
2022/05/25 03:37:27;;;;;;;;;;;;;;;;;;1040885;28;3845;-55
2022/05/25 03:37:58;;;;;;;;;;;;;;;;;;1040517;28;3904;-52
2022/05/25 03:38:30;;;;;;;;;;;;;;;;;;1041767;28;2064;-56
2022/05/25 03:39:00;;;;;;;;;;;;;;;;;;1041352;28;3944;-57
2022/05/25 03:39:31;;;;;;;;;;;;;;;;;;1041285;28;3738;-58
2022/05/25 03:40:02;;;;;;;;;;;;;;;;;;1040349;28;4039;-57
2022/05/25 03:40:33;;;;;;;;;;;;;;;;;;1041769;28;3818;-57
2022/05/25 03:41:03;;;;;;;;;;;;;;;;;;1041772;28;3882;-55
2022/05/25 03:41:33;;;;;;;;;;;;;;;;;;1041744;28;1947;-57
2022/05/25 03:42:07;;;;;;;;;;;;;;;;;;1041523;28;4022;-56
2022/05/25 03:42:41;;;;;;;;;;;;;;;;;;1041786;28;1696;-53
2022/05/25 03:43:14;;;;;;;;;;;;;;;;;;1041878;28;3860;-59
2022/05/25 03:43:45;;;;;;;;;;;;;;;;;;1041051;28;4097;-56
2022/05/25 03:44:16;;;;;;;;;;;;;;;;;;1040421;28;3690;-55
2022/05/25 03:44:47;;;;;;;;;;;;;;;;;;1041033;28;4139;-56
2022/05/25 03:45:17;;;;;;;;;;;;;;;;;;1040840;28;3071;-54
2022/05/25 03:45:47;;;;;;;;;;;;;;;;;;1041692;28;4203;-57
2022/05/25 03:46:18;;;;;;;;;;;;;;;;;;1040828;28;2957;-55
2022/05/25 03:46:48;;;;;;;;;;;;;;;;;;1040167;28;3883;-55
2022/05/25 03:47:19;;;;;;;;;;;;;;;;;;1040540;28;3734;-56
2022/05/25 03:47:49;;;;;;;;;;;;;;;;;;1040426;28;4255;-53
2022/05/25 03:48:19;;;;;;;;;;;;;;;;;;1041689;28;2992;-54
2022/05/25 03:48:49;;;;;;;;;;;;;;;;;;1041124;28;3882;-54
2022/05/25 03:49:20;;;;;;;;;;;;;;;;;;1039896;28;3567;-56
2022/05/25 03:49:50;;;;;;;;;;;;;;;;;;1040042;28;4061;-56
2022/05/25 03:50:20;;;;;;;;;;;;;;;;;;1040634;28;3052;-55
2022/05/25 03:51:04;;;;;;;;;;;;;;;;;;1043011;28;4272;-56
2022/05/25 03:51:42;;;;;;;;;;;;;;;;;;1044778;28;3720;-57
2022/05/25 03:52:13;;;;;;;;;;;;;;;;;;1044285;28;3973;-57
2022/05/25 03:52:43;;;;;;;;;;;;;;;;;;1046107;28;3695;-55
2022/05/25 03:53:14;;;;;;;;;;;;;;;;;;1044452;28;3961;-50
2022/05/25 03:53:45;;;;;;;;;;;;;;;;;;1045810;28;4041;-58
2022/05/25 03:54:15;;;;;;;;;;;;;;;;;;1045086;28;3391;-55
2022/05/25 03:54:45;;;;;;;;;;;;;;;;;;1045294;28;4046;-57
2022/05/25 03:55:16;;;;;;;;;;;;;;;;;;1044677;28;3427;-54